Terminal Aerodrome Forecast
Issued by NWS Bismarck, ND

Home | Current Version | Previous Version | Text Only | Print | Product List | Glossary Off
Versions: 1 2 3 4 5 6 7 8 9 10 11 12 13 14 15 16 17 18

000
FTUS43 KBIS 231700
TAFBIS
TAF
KBIS 231740Z 2318/2418 29022G34KT P6SM VCSH OVC025
      TEMPO 2320/2322 5SM -SN
     FM240200 33017KT P6SM OVC025
     FM241200 33013KT P6SM SCT025=

USA.gov is the U.S. government's official web portal to all federal, state and local government web resources and services.